Time;durP1;ratioP1;P1;durP2;ratioP2;P2;SDS_P1;SDS_P2;PMS_P1;PMS_P2;Temp;Humidity;BMP_temperature;BMP_pressure;BME280_temperature;BME280_humidity;BME280_pressure;Samples;Min_cycle;Max_cycle;Signal;HPM_P1;HPM_P2
2023/12/26 00:00:59;;;;;;;2.72;2.53;;;;;;;;;;2076754;28;20037;-75
2023/12/26 00:02:18;;;;;;;3.05;2.75;;;;;;;;;;2075032;28;20042;-75
2023/12/26 00:03:37;;;;;;;3.35;3.05;;;;;;;;;;2070762;28;20022;-75
2023/12/26 00:04:56;;;;;;;1.88;1.70;;;;;;;;;;2076751;28;20033;-76
2023/12/26 00:06:19;;;;;;;3.55;3.20;;;;;;;;;;2072947;28;20139;-76
2023/12/26 00:07:39;;;;;;;3.15;1.92;;;;;;;;;;2074197;28;20038;-75
2023/12/26 00:08:58;;;;;;;3.28;2.97;;;;;;;;;;2076399;28;20049;-75
2023/12/26 00:10:18;;;;;;;3.47;2.83;;;;;;;;;;2074051;28;20025;-75
2023/12/26 00:11:43;;;;;;;3.47;2.90;;;;;;;;;;2077373;28;20030;-76
2023/12/26 00:13:03;;;;;;;3.58;3.17;;;;;;;;;;2079107;28;20025;-77
2023/12/26 00:14:22;;;;;;;3.03;2.72;;;;;;;;;;2079346;28;20060;-76
2023/12/26 00:15:41;;;;;;;3.45;2.90;;;;;;;;;;2074503;28;20042;-75
2023/12/26 00:17:00;;;;;;;3.00;2.67;;;;;;;;;;2068190;28;20033;-75
2023/12/26 00:18:19;;;;;;;3.80;3.22;;;;;;;;;;2079178;28;20969;-76
2023/12/26 00:19:38;;;;;;;2.95;2.70;;;;;;;;;;2080106;28;20049;-78
2023/12/26 00:20:57;;;;;;;3.92;3.20;;;;;;;;;;2074546;28;20081;-75
2023/12/26 00:22:16;;;;;;;3.13;2.83;;;;;;;;;;2077420;28;20022;-75
2023/12/26 00:23:35;;;;;;;3.35;3.05;;;;;;;;;;2080874;28;20482;-76
2023/12/26 00:24:54;;;;;;;3.55;2.80;;;;;;;;;;2080079;28;20030;-77
2023/12/26 00:26:13;;;;;;;2.33;2.13;;;;;;;;;;2082000;28;20026;-75
2023/12/26 00:27:31;;;;;;;3.25;2.95;;;;;;;;;;2074921;28;20054;-75
2023/12/26 00:28:50;;;;;;;3.20;2.72;;;;;;;;;;2078515;28;20037;-75
2023/12/26 00:30:09;;;;;;;3.03;2.72;;;;;;;;;;2080153;28;20116;-74
2023/12/26 00:31:28;;;;;;;3.85;2.95;;;;;;;;;;2080091;28;20108;-74
2023/12/26 00:32:47;;;;;;;4.15;2.70;;;;;;;;;;2075435;28;20189;-76
2023/12/26 00:34:06;;;;;;;3.00;2.70;;;;;;;;;;2072918;28;20053;-75
2023/12/26 00:35:25;;;;;;;3.03;2.72;;;;;;;;;;2079039;28;20033;-75
2023/12/26 00:36:45;;;;;;;2.88;2.60;;;;;;;;;;2080204;28;20034;-75
2023/12/26 00:38:03;;;;;;;3.17;2.70;;;;;;;;;;2079608;28;20037;-75
2023/12/26 00:39:22;;;;;;;3.00;2.33;;;;;;;;;;2080056;28;20073;-75
2023/12/26 00:40:41;;;;;;;3.30;2.97;;;;;;;;;;2080311;28;20037;-76
2023/12/26 00:42:00;;;;;;;2.47;2.28;;;;;;;;;;2082967;28;20101;-76
2023/12/26 00:43:19;;;;;;;3.10;2.80;;;;;;;;;;2075037;28;20030;-76
2023/12/26 00:44:38;;;;;;;2.55;2.35;;;;;;;;;;2078014;28;20022;-76
2023/12/26 00:45:58;;;;;;;2.85;2.60;;;;;;;;;;2081587;28;20021;-76
2023/12/26 00:47:17;;;;;;;3.10;2.67;;;;;;;;;;2081575;28;20118;-76
2023/12/26 00:48:36;;;;;;;2.65;2.45;;;;;;;;;;2077048;28;20113;-76
2023/12/26 00:49:57;;;;;;;3.00;2.80;;;;;;;;;;2079049;28;20157;-75
2023/12/26 00:51:16;;;;;;;2.72;2.50;;;;;;;;;;2073395;28;20046;-75
2023/12/26 00:52:35;;;;;;;3.42;2.72;;;;;;;;;;2071486;28;20033;-75
2023/12/26 00:53:54;;;;;;;3.58;2.85;;;;;;;;;;2072348;28;20033;-77
2023/12/26 00:55:13;;;;;;;3.13;2.85;;;;;;;;;;2080163;28;20029;-76
2023/12/26 00:56:32;;;;;;;3.50;2.05;;;;;;;;;;2075745;28;20025;-76
2023/12/26 00:57:51;;;;;;;2.83;2.63;;;;;;;;;;2076759;28;20069;-75
2023/12/26 00:59:10;;;;;;;2.72;2.53;;;;;;;;;;2080393;28;20034;-75
2023/12/26 01:00:29;;;;;;;3.58;2.70;;;;;;;;;;2079552;28;20061;-75
2023/12/26 01:01:48;;;;;;;3.17;2.88;;;;;;;;;;2082415;28;20030;-75
2023/12/26 01:03:09;;;;;;;3.17;2.70;;;;;;;;;;2076909;28;20037;-75
2023/12/26 01:04:28;;;;;;;2.63;2.42;;;;;;;;;;2072568;28;20026;-75
2023/12/26 01:05:50;;;;;;;2.17;1.98;;;;;;;;;;2069990;28;20030;-76
2023/12/26 01:07:09;;;;;;;3.17;2.83;;;;;;;;;;2077859;28;20018;-75
2023/12/26 01:08:28;;;;;;;2.55;2.35;;;;;;;;;;2080920;28;20045;-76
2023/12/26 01:09:46;;;;;;;3.08;2.80;;;;;;;;;;2075103;28;20521;-77
2023/12/26 01:11:06;;;;;;;3.05;2.78;;;;;;;;;;2077432;28;20025;-77
2023/12/26 01:12:25;;;;;;;2.78;2.42;;;;;;;;;;2080732;28;20030;-75
2023/12/26 01:13:44;;;;;;;4.07;2.60;;;;;;;;;;2079877;28;20033;-75
2023/12/26 01:15:03;;;;;;;4.28;3.03;;;;;;;;;;2079153;28;20042;-76
2023/12/26 01:16:27;;;;;;;2.97;2.70;;;;;;;;;;2078752;28;20022;-76
2023/12/26 01:17:46;;;;;;;2.90;2.70;;;;;;;;;;2080617;28;20025;-77
2023/12/26 01:19:05;;;;;;;2.88;2.67;;;;;;;;;;2075865;28;20037;-75
2023/12/26 01:20:24;;;;;;;4.95;3.00;;;;;;;;;;2071601;28;20459;-74
2023/12/26 01:21:43;;;;;;;2.72;2.53;;;;;;;;;;2070933;28;20101;-75
2023/12/26 01:23:02;;;;;;;2.63;2.28;;;;;;;;;;2073093;28;20038;-76
2023/12/26 01:24:21;;;;;;;2.75;2.55;;;;;;;;;;2073389;28;20034;-75
2023/12/26 01:25:40;;;;;;;3.00;2.72;;;;;;;;;;2065939;28;20483;-74
2023/12/26 01:27:00;;;;;;;3.28;2.60;;;;;;;;;;2076559;28;20112;-78
2023/12/26 01:28:19;;;;;;;3.83;2.50;;;;;;;;;;2079754;28;20084;-75
2023/12/26 01:29:39;;;;;;;3.03;2.72;;;;;;;;;;2081103;28;20033;-76
2023/12/26 01:30:58;;;;;;;4.10;2.70;;;;;;;;;;2081402;28;20038;-76
2023/12/26 01:32:17;;;;;;;3.00;2.70;;;;;;;;;;2075993;28;20037;-76
2023/12/26 01:33:35;;;;;;;3.03;2.72;;;;;;;;;;2076834;28;20108;-75
2023/12/26 01:34:54;;;;;;;3.45;3.15;;;;;;;;;;2079688;28;20029;-75
2023/12/26 01:36:13;;;;;;;3.30;3.00;;;;;;;;;;2080846;28;20029;-76
2023/12/26 01:37:32;;;;;;;3.25;2.80;;;;;;;;;;2080204;28;20037;-75
2023/12/26 01:38:51;;;;;;;3.03;2.70;;;;;;;;;;2075579;28;20414;-75
2023/12/26 01:40:11;;;;;;;3.17;2.60;;;;;;;;;;2078181;28;20026;-75
2023/12/26 01:41:30;;;;;;;3.03;2.72;;;;;;;;;;2086306;28;20034;-77
2023/12/26 01:42:49;;;;;;;4.53;3.10;;;;;;;;;;2090474;28;20242;-76
2023/12/26 01:44:08;;;;;;;3.20;2.80;;;;;;;;;;2090003;28;20033;-77
2023/12/26 01:45:27;;;;;;;2.80;2.60;;;;;;;;;;2091434;28;20033;-76
2023/12/26 01:46:46;;;;;;;3.25;2.95;;;;;;;;;;2087573;28;20038;-75
2023/12/26 01:48:06;;;;;;;3.25;2.95;;;;;;;;;;2075167;28;20460;-75
2023/12/26 01:49:25;;;;;;;3.22;2.92;;;;;;;;;;2078780;28;20483;-75
2023/12/26 01:50:44;;;;;;;3.30;2.80;;;;;;;;;;2080624;28;20076;-76
2023/12/26 01:52:05;;;;;;;3.05;2.70;;;;;;;;;;2084710;28;20045;-77
2023/12/26 01:53:24;;;;;;;3.05;2.75;;;;;;;;;;2091168;28;20356;-76
2023/12/26 01:54:43;;;;;;;3.35;3.03;;;;;;;;;;2088452;28;20017;-75
2023/12/26 01:56:02;;;;;;;2.83;2.63;;;;;;;;;;2077939;28;20030;-75
2023/12/26 01:57:21;;;;;;;3.28;2.90;;;;;;;;;;2084431;28;20025;-73
2023/12/26 01:58:41;;;;;;;3.10;2.90;;;;;;;;;;2089046;28;20033;-76
2023/12/26 02:00:01;;;;;;;3.47;3.17;;;;;;;;;;2087501;28;20025;-77
2023/12/26 02:01:20;;;;;;;2.92;2.67;;;;;;;;;;2081310;28;20026;-75
2023/12/26 02:02:42;;;;;;;3.10;2.80;;;;;;;;;;2085145;28;20038;-75
2023/12/26 02:04:01;;;;;;;4.93;2.90;;;;;;;;;;2084998;28;20029;-75
2023/12/26 02:05:20;;;;;;;2.75;2.45;;;;;;;;;;2085661;28;20025;-76
2023/12/26 02:06:40;;;;;;;3.10;2.83;;;;;;;;;;2081805;28;20103;-75
2023/12/26 02:07:59;;;;;;;3.65;3.25;;;;;;;;;;2082007;28;20089;-76
2023/12/26 02:09:19;;;;;;;3.22;2.80;;;;;;;;;;2074320;28;20116;-76
2023/12/26 02:10:38;;;;;;;2.95;2.65;;;;;;;;;;2073775;28;20060;-76
2023/12/26 02:11:57;;;;;;;3.40;3.10;;;;;;;;;;2069402;28;20037;-75
2023/12/26 02:13:16;;;;;;;3.45;2.10;;;;;;;;;;2071509;28;20411;-75
2023/12/26 02:14:35;;;;;;;2.95;2.67;;;;;;;;;;2069604;28;20026;-76
2023/12/26 02:15:57;;;;;;;3.45;2.38;;;;;;;;;;2076800;28;20112;-75
2023/12/26 02:17:19;;;;;;;3.13;2.35;;;;;;;;;;2082119;28;20025;-75
2023/12/26 02:18:38;;;;;;;2.60;2.40;;;;;;;;;;2074079;28;20410;-75
2023/12/26 02:19:57;;;;;;;2.60;2.38;;;;;;;;;;2071314;28;20503;-76
2023/12/26 02:21:17;;;;;;;2.80;2.20;;;;;;;;;;2078519;28;20037;-75
2023/12/26 02:22:36;;;;;;;2.63;2.42;;;;;;;;;;2079798;28;20026;-76
2023/12/26 02:23:55;;;;;;;3.05;2.03;;;;;;;;;;2073787;28;20022;-75
2023/12/26 02:25:15;;;;;;;2.47;2.20;;;;;;;;;;2071204;28;20029;-76
2023/12/26 02:26:38;;;;;;;3.25;2.70;;;;;;;;;;2072961;28;20021;-75
2023/12/26 02:27:58;;;;;;;2.85;1.88;;;;;;;;;;2076046;28;20041;-75
2023/12/26 02:29:18;;;;;;;2.22;2.03;;;;;;;;;;2079776;28;20053;-76
2023/12/26 02:30:38;;;;;;;2.72;2.53;;;;;;;;;;2081612;28;20391;-75
2023/12/26 02:31:58;;;;;;;2.90;2.65;;;;;;;;;;2075234;28;20029;-75
2023/12/26 02:33:17;;;;;;;3.83;2.33;;;;;;;;;;2075758;28;20061;-76
2023/12/26 02:34:36;;;;;;;2.65;2.20;;;;;;;;;;2074619;28;20033;-76
2023/12/26 02:35:55;;;;;;;2.35;2.15;;;;;;;;;;2066997;28;20069;-75
2023/12/26 02:37:14;;;;;;;2.67;2.45;;;;;;;;;;2075496;28;20021;-75
2023/12/26 02:38:33;;;;;;;2.28;2.08;;;;;;;;;;2074943;28;20041;-75
2023/12/26 02:39:51;;;;;;;2.58;2.38;;;;;;;;;;2078146;28;20108;-75
2023/12/26 02:41:10;;;;;;;2.63;2.20;;;;;;;;;;2074600;28;20057;-75
2023/12/26 02:42:30;;;;;;;2.42;2.22;;;;;;;;;;2076288;28;20037;-75
2023/12/26 02:43:48;;;;;;;2.40;2.20;;;;;;;;;;2078771;28;20034;-76
2023/12/26 02:45:08;;;;;;;2.22;2.03;;;;;;;;;;2080483;28;20025;-75
2023/12/26 02:46:27;;;;;;;2.58;2.38;;;;;;;;;;2074973;28;20076;-76
2023/12/26 02:47:46;;;;;;;2.45;2.25;;;;;;;;;;2076301;28;20030;-75
2023/12/26 02:49:05;;;;;;;2.35;2.15;;;;;;;;;;2068250;28;20566;-75
2023/12/26 02:50:23;;;;;;;3.15;2.60;;;;;;;;;;2075413;28;20060;-75
2023/12/26 02:51:42;;;;;;;2.17;1.98;;;;;;;;;;2072667;28;20029;-75
2023/12/26 02:53:01;;;;;;;3.03;2.40;;;;;;;;;;2071385;28;20026;-77
2023/12/26 02:54:20;;;;;;;2.25;2.05;;;;;;;;;;2078385;28;20030;-76
2023/12/26 02:55:39;;;;;;;2.38;1.77;;;;;;;;;;2074607;28;20443;-76
2023/12/26 02:56:58;;;;;;;2.30;2.10;;;;;;;;;;2076321;28;20021;-76
2023/12/26 02:58:18;;;;;;;2.40;2.20;;;;;;;;;;2076800;28;20033;-76
2023/12/26 02:59:37;;;;;;;2.38;1.85;;;;;;;;;;2077096;28;20108;-74
2023/12/26 03:00:55;;;;;;;2.30;2.08;;;;;;;;;;2073140;28;20038;-75
2023/12/26 03:02:14;;;;;;;3.55;1.95;;;;;;;;;;2072603;28;20075;-75
2023/12/26 03:03:33;;;;;;;2.78;2.40;;;;;;;;;;2078818;28;20030;-75
2023/12/26 03:04:52;;;;;;;2.10;1.90;;;;;;;;;;2080710;28;20399;-75
2023/12/26 03:06:11;;;;;;;2.10;1.90;;;;;;;;;;2079159;28;20116;-76
2023/12/26 03:07:30;;;;;;;2.42;2.22;;;;;;;;;;2073510;28;20038;-75
2023/12/26 03:08:49;;;;;;;2.10;1.90;;;;;;;;;;2072037;28;20038;-77
2023/12/26 03:10:09;;;;;;;2.83;2.47;;;;;;;;;;2079109;28;20029;-75
2023/12/26 03:11:28;;;;;;;2.50;2.30;;;;;;;;;;2074345;28;20042;-75
2023/12/26 03:12:47;;;;;;;2.38;2.17;;;;;;;;;;2077681;28;20053;-75
2023/12/26 03:14:07;;;;;;;2.13;1.92;;;;;;;;;;2079696;28;20029;-75
2023/12/26 03:15:26;;;;;;;2.10;1.90;;;;;;;;;;2072240;28;20034;-76
2023/12/26 03:16:45;;;;;;;2.67;2.00;;;;;;;;;;2071810;28;20026;-76
2023/12/26 03:18:04;;;;;;;2.55;2.35;;;;;;;;;;2077209;28;20073;-76
2023/12/26 03:19:23;;;;;;;3.60;2.20;;;;;;;;;;2080491;28;20111;-75
2023/12/26 03:20:42;;;;;;;2.33;2.13;;;;;;;;;;2073666;28;20491;-75
2023/12/26 03:22:01;;;;;;;1.90;1.80;;;;;;;;;;2072457;28;20407;-75
2023/12/26 03:23:20;;;;;;;3.20;2.30;;;;;;;;;;2070976;28;20030;-75
2023/12/26 03:24:39;;;;;;;2.17;1.98;;;;;;;;;;2076415;28;20490;-75
2023/12/26 03:25:58;;;;;;;2.30;2.10;;;;;;;;;;2079199;28;20030;-76
2023/12/26 03:27:17;;;;;;;2.55;2.35;;;;;;;;;;2076361;28;20030;-75
2023/12/26 03:28:36;;;;;;;2.60;2.40;;;;;;;;;;2077956;28;20041;-75
2023/12/26 03:29:55;;;;;;;2.75;2.17;;;;;;;;;;2078857;28;20029;-75
2023/12/26 03:31:14;;;;;;;2.30;2.10;;;;;;;;;;2072461;28;20507;-75
2023/12/26 03:32:32;;;;;;;2.42;1.80;;;;;;;;;;2078527;28;20493;-75
2023/12/26 03:33:52;;;;;;;2.10;1.98;;;;;;;;;;2081424;28;20041;-75
2023/12/26 03:35:10;;;;;;;2.70;2.50;;;;;;;;;;2074925;28;20030;-76
2023/12/26 03:36:29;;;;;;;3.58;2.20;;;;;;;;;;2077120;28;20034;-75
2023/12/26 03:37:48;;;;;;;2.30;2.10;;;;;;;;;;2080061;28;20525;-75
2023/12/26 03:39:07;;;;;;;2.50;2.30;;;;;;;;;;2074965;28;20057;-75
2023/12/26 03:40:27;;;;;;;4.18;2.20;;;;;;;;;;2077537;28;20397;-75
2023/12/26 03:41:48;;;;;;;2.60;2.38;;;;;;;;;;2077397;28;20029;-73
2023/12/26 03:43:07;;;;;;;2.63;2.20;;;;;;;;;;2079610;28;20474;-75
2023/12/26 03:44:26;;;;;;;2.47;2.28;;;;;;;;;;2079469;28;20033;-74
2023/12/26 03:45:45;;;;;;;2.65;2.45;;;;;;;;;;2080792;28;20542;-75
2023/12/26 03:47:04;;;;;;;2.55;2.38;;;;;;;;;;2073750;28;20022;-75
2023/12/26 03:48:23;;;;;;;2.58;2.38;;;;;;;;;;2076199;28;20418;-75
2023/12/26 03:49:42;;;;;;;2.70;2.50;;;;;;;;;;2078937;28;20053;-75
2023/12/26 03:51:01;;;;;;;2.53;2.33;;;;;;;;;;2080397;28;20022;-76
2023/12/26 03:52:20;;;;;;;2.85;2.20;;;;;;;;;;2079536;28;20096;-75
2023/12/26 03:53:39;;;;;;;2.67;2.47;;;;;;;;;;2079360;28;20038;-75
2023/12/26 03:54:59;;;;;;;2.17;2.08;;;;;;;;;;2078189;28;20064;-75
2023/12/26 03:56:18;;;;;;;2.83;2.20;;;;;;;;;;2079697;28;20045;-75
2023/12/26 03:57:37;;;;;;;2.80;2.60;;;;;;;;;;2080432;28;20069;-76
2023/12/26 03:58:56;;;;;;;2.40;2.20;;;;;;;;;;2074393;28;20061;-75
2023/12/26 04:00:15;;;;;;;2.85;2.40;;;;;;;;;;2079596;28;20463;-76
2023/12/26 04:01:34;;;;;;;2.95;2.65;;;;;;;;;;2075520;28;20411;-75
2023/12/26 04:02:53;;;;;;;2.33;2.13;;;;;;;;;;2076969;28;20236;-75
2023/12/26 04:04:12;;;;;;;4.57;2.28;;;;;;;;;;2074607;28;20052;-75
2023/12/26 04:05:31;;;;;;;3.47;2.47;;;;;;;;;;2078372;28;20034;-75
2023/12/26 04:06:50;;;;;;;2.33;2.13;;;;;;;;;;2074413;28;20025;-75
2023/12/26 04:08:10;;;;;;;2.90;2.70;;;;;;;;;;2072227;28;20891;-75
2023/12/26 04:09:28;;;;;;;2.40;2.20;;;;;;;;;;2074375;28;20542;-75
2023/12/26 04:10:48;;;;;;;3.80;2.42;;;;;;;;;;2079316;28;20120;-75
2023/12/26 04:12:08;;;;;;;2.60;2.40;;;;;;;;;;2080288;28;20025;-74
2023/12/26 04:13:27;;;;;;;2.85;2.58;;;;;;;;;;2080433;28;20487;-75
2023/12/26 04:14:46;;;;;;;2.60;2.40;;;;;;;;;;2080471;28;20030;-75
2023/12/26 04:16:05;;;;;;;2.83;2.63;;;;;;;;;;2081688;28;20064;-76
2023/12/26 04:17:25;;;;;;;2.95;2.53;;;;;;;;;;2081638;28;20033;-76
2023/12/26 04:18:44;;;;;;;3.08;2.78;;;;;;;;;;2079690;28;20025;-75
2023/12/26 04:20:04;;;;;;;2.63;2.42;;;;;;;;;;2075317;28;20021;-75
2023/12/26 04:21:23;;;;;;;2.58;2.38;;;;;;;;;;2072855;28;20022;-75
2023/12/26 04:22:42;;;;;;;2.85;2.65;;;;;;;;;;2071549;28;20053;-75
2023/12/26 04:24:01;;;;;;;2.70;2.45;;;;;;;;;;2078243;28;20029;-75
2023/12/26 04:25:22;;;;;;;2.55;2.35;;;;;;;;;;2081531;28;20041;-76
2023/12/26 04:26:41;;;;;;;2.50;2.30;;;;;;;;;;2076195;28;20135;-75
2023/12/26 04:28:00;;;;;;;2.80;2.60;;;;;;;;;;2079725;28;20033;-76
2023/12/26 04:29:19;;;;;;;2.50;2.30;;;;;;;;;;2075379;28;20057;-75
2023/12/26 04:30:39;;;;;;;2.67;2.47;;;;;;;;;;2078614;28;20064;-75
2023/12/26 04:31:58;;;;;;;2.80;2.60;;;;;;;;;;2082759;28;20518;-75
2023/12/26 04:33:17;;;;;;;2.88;2.58;;;;;;;;;;2075273;28;20045;-75
2023/12/26 04:34:40;;;;;;;2.88;2.58;;;;;;;;;;2079572;28;20030;-75
2023/12/26 04:35:59;;;;;;;3.28;2.58;;;;;;;;;;2076441;28;20065;-75
2023/12/26 04:37:18;;;;;;;2.58;2.38;;;;;;;;;;2072009;28;20025;-75
2023/12/26 04:38:37;;;;;;;2.78;2.58;;;;;;;;;;2078154;28;20033;-75
2023/12/26 04:39:56;;;;;;;2.55;2.35;;;;;;;;;;2080702;28;20096;-75
2023/12/26 04:41:15;;;;;;;2.50;2.30;;;;;;;;;;2075215;28;20025;-75
2023/12/26 04:42:34;;;;;;;2.85;2.53;;;;;;;;;;2078334;28;20383;-76
2023/12/26 04:43:53;;;;;;;2.88;2.65;;;;;;;;;;2075823;28;20483;-75
2023/12/26 04:45:12;;;;;;;4.43;2.40;;;;;;;;;;2077838;28;20086;-76
2023/12/26 04:46:31;;;;;;;2.90;2.60;;;;;;;;;;2075369;28;20021;-74
2023/12/26 04:47:50;;;;;;;2.63;2.08;;;;;;;;;;2077726;28;20033;-75
2023/12/26 04:49:09;;;;;;;2.50;2.15;;;;;;;;;;2072699;28;20026;-75
2023/12/26 04:50:28;;;;;;;2.65;2.45;;;;;;;;;;2075626;28;20034;-75
2023/12/26 04:51:46;;;;;;;2.35;2.15;;;;;;;;;;2081567;28;20053;-75
2023/12/26 04:53:06;;;;;;;2.67;2.47;;;;;;;;;;2077530;28;20037;-75
2023/12/26 04:54:25;;;;;;;2.38;2.17;;;;;;;;;;2076167;28;20029;-75
2023/12/26 04:55:44;;;;;;;2.20;2.00;;;;;;;;;;2074149;28;20035;-75
2023/12/26 04:57:02;;;;;;;2.58;2.20;;;;;;;;;;2071932;28;20078;-75
2023/12/26 04:58:21;;;;;;;3.20;2.53;;;;;;;;;;2079041;28;20029;-75
2023/12/26 04:59:40;;;;;;;2.65;2.45;;;;;;;;;;2082044;28;20116;-75
2023/12/26 05:00:59;;;;;;;2.60;2.40;;;;;;;;;;2073908;28;20026;-75
2023/12/26 05:02:19;;;;;;;3.95;2.88;;;;;;;;;;2065644;28;20033;-76
2023/12/26 05:03:38;;;;;;;2.40;2.20;;;;;;;;;;2075102;28;20030;-75
2023/12/26 05:04:57;;;;;;;3.00;2.80;;;;;;;;;;2075393;28;20038;-75
2023/12/26 05:06:19;;;;;;;2.78;2.58;;;;;;;;;;2071659;28;20047;-76
2023/12/26 05:07:38;;;;;;;2.55;2.35;;;;;;;;;;2073197;28;20038;-76
2023/12/26 05:08:58;;;;;;;2.83;2.63;;;;;;;;;;2078035;28;20092;-76
2023/12/26 05:10:18;;;;;;;5.88;2.90;;;;;;;;;;2075409;28;20438;-74
2023/12/26 05:11:37;;;;;;;2.35;2.15;;;;;;;;;;2064214;28;20022;-75
2023/12/26 05:12:56;;;;;;;2.53;2.28;;;;;;;;;;2075020;28;20038;-74
2023/12/26 05:14:15;;;;;;;2.60;2.40;;;;;;;;;;2077058;28;20026;-76
2023/12/26 05:15:34;;;;;;;3.15;2.60;;;;;;;;;;2080718;28;20513;-75
2023/12/26 05:16:54;;;;;;;2.92;2.63;;;;;;;;;;2078926;28;20029;-75
2023/12/26 05:18:13;;;;;;;2.50;2.30;;;;;;;;;;2081457;28;20029;-75
2023/12/26 05:19:32;;;;;;;2.53;2.25;;;;;;;;;;2074405;28;20515;-75
2023/12/26 05:20:50;;;;;;;3.05;2.85;;;;;;;;;;2078862;28;20029;-75
2023/12/26 05:22:10;;;;;;;3.17;2.92;;;;;;;;;;2073524;28;20034;-75
2023/12/26 05:23:29;;;;;;;4.63;3.25;;;;;;;;;;2067072;28;20027;-75
2023/12/26 05:24:48;;;;;;;3.92;3.25;;;;;;;;;;2073617;28;20038;-77
2023/12/26 05:26:07;;;;;;;2.78;2.58;;;;;;;;;;2088122;28;20045;-78
2023/12/26 05:27:26;;;;;;;4.68;3.00;;;;;;;;;;2086737;28;20090;-77
2023/12/26 05:28:46;;;;;;;2.63;2.42;;;;;;;;;;2088096;28;20045;-76
2023/12/26 05:30:05;;;;;;;3.47;2.67;;;;;;;;;;2089244;28;20049;-75
2023/12/26 05:31:24;;;;;;;2.78;2.58;;;;;;;;;;2081852;28;20042;-75
2023/12/26 05:32:43;;;;;;;2.80;2.55;;;;;;;;;;2076495;28;20037;-76
2023/12/26 05:34:02;;;;;;;2.67;2.45;;;;;;;;;;2080986;28;20034;-75
2023/12/26 05:35:21;;;;;;;3.63;2.70;;;;;;;;;;2083391;28;20056;-75
2023/12/26 05:36:40;;;;;;;2.95;2.65;;;;;;;;;;2086827;28;20103;-76
2023/12/26 05:38:00;;;;;;;3.08;2.80;;;;;;;;;;2091313;28;20029;-76
2023/12/26 05:39:20;;;;;;;3.08;2.78;;;;;;;;;;2091746;28;20037;-76
2023/12/26 05:40:40;;;;;;;3.10;2.83;;;;;;;;;;2090004;28;20037;-75
2023/12/26 05:41:59;;;;;;;3.20;2.30;;;;;;;;;;2084445;28;20029;-75
2023/12/26 05:43:18;;;;;;;2.92;2.55;;;;;;;;;;2086150;28;20044;-75
2023/12/26 05:44:38;;;;;;;4.07;3.10;;;;;;;;;;2085611;28;20025;-75
2023/12/26 05:46:00;;;;;;;2.95;2.65;;;;;;;;;;2087337;28;20025;-76
2023/12/26 05:47:20;;;;;;;4.75;2.72;;;;;;;;;;2074586;28;20514;-74
2023/12/26 05:48:41;;;;;;;3.58;3.05;;;;;;;;;;2078384;28;20042;-75
2023/12/26 05:50:00;;;;;;;2.92;2.72;;;;;;;;;;2067598;28;21012;-75
2023/12/26 05:51:19;;;;;;;3.35;3.05;;;;;;;;;;2068387;28;20370;-74
2023/12/26 05:52:39;;;;;;;2.83;2.60;;;;;;;;;;2075137;28;20029;-75
2023/12/26 05:53:57;;;;;;;2.20;2.00;;;;;;;;;;2078825;28;20025;-75
2023/12/26 05:55:16;;;;;;;2.78;2.58;;;;;;;;;;2073500;28;20439;-76
2023/12/26 05:56:35;;;;;;;5.13;2.83;;;;;;;;;;2069751;28;20029;-75
2023/12/26 05:57:54;;;;;;;3.47;2.83;;;;;;;;;;2077386;28;20482;-76
2023/12/26 05:59:13;;;;;;;2.92;2.67;;;;;;;;;;2075155;28;20436;-75
2023/12/26 06:00:32;;;;;;;3.20;2.40;;;;;;;;;;2072755;28;20974;-74
2023/12/26 06:01:51;;;;;;;2.97;2.70;;;;;;;;;;2077595;28;20037;-75
2023/12/26 06:03:10;;;;;;;2.60;2.40;;;;;;;;;;2075804;28;20418;-74
2023/12/26 06:04:29;;;;;;;3.05;2.63;;;;;;;;;;2076132;28;20169;-74
2023/12/26 06:05:48;;;;;;;3.42;2.97;;;;;;;;;;2074344;28;20439;-75
2023/12/26 06:07:07;;;;;;;3.00;2.80;;;;;;;;;;2071620;28;20034;-75
2023/12/26 06:08:26;;;;;;;2.67;2.47;;;;;;;;;;2072124;28;20038;-76
2023/12/26 06:09:45;;;;;;;2.90;2.60;;;;;;;;;;2070151;28;20068;-75
2023/12/26 06:11:04;;;;;;;3.03;2.53;;;;;;;;;;2079279;28;20395;-75
2023/12/26 06:12:23;;;;;;;3.00;2.80;;;;;;;;;;2076259;28;20476;-74
2023/12/26 06:13:42;;;;;;;2.72;2.50;;;;;;;;;;2070282;28;20073;-75
2023/12/26 06:15:02;;;;;;;3.00;2.70;;;;;;;;;;2076583;28;20038;-75
2023/12/26 06:16:21;;;;;;;2.97;2.78;;;;;;;;;;2078978;28;20034;-75
2023/12/26 06:17:40;;;;;;;3.05;2.75;;;;;;;;;;2075703;28;20470;-75
2023/12/26 06:18:59;;;;;;;3.30;3.00;;;;;;;;;;2078287;28;20017;-75
2023/12/26 06:20:21;;;;;;;5.10;3.08;;;;;;;;;;2079121;28;20495;-74
2023/12/26 06:21:40;;;;;;;3.22;2.92;;;;;;;;;;2073600;28;20030;-75
2023/12/26 06:22:58;;;;;;;3.45;3.15;;;;;;;;;;2069172;28;20034;-74
2023/12/26 06:24:17;;;;;;;3.30;2.88;;;;;;;;;;2078346;28;20057;-76
2023/12/26 06:25:36;;;;;;;3.40;3.10;;;;;;;;;;2080921;28;20029;-75
2023/12/26 06:26:55;;;;;;;4.35;3.08;;;;;;;;;;2079788;28;20025;-75
2023/12/26 06:28:14;;;;;;;3.83;3.20;;;;;;;;;;2074347;28;20025;-75
2023/12/26 06:29:33;;;;;;;3.42;3.13;;;;;;;;;;2077600;28;20121;-75
2023/12/26 06:30:52;;;;;;;5.18;2.92;;;;;;;;;;2074798;28;20045;-75
2023/12/26 06:32:10;;;;;;;3.67;2.97;;;;;;;;;;2070026;28;20025;-75
2023/12/26 06:33:29;;;;;;;3.50;3.20;;;;;;;;;;2078525;28;20478;-75
2023/12/26 06:34:48;;;;;;;5.10;3.20;;;;;;;;;;2074389;28;20395;-75
2023/12/26 06:36:07;;;;;;;4.07;3.30;;;;;;;;;;2070893;28;20030;-74
2023/12/26 06:37:27;;;;;;;4.15;3.75;;;;;;;;;;2069505;28;20049;-75
2023/12/26 06:38:46;;;;;;;4.40;3.15;;;;;;;;;;2075094;28;20167;-75
2023/12/26 06:40:05;;;;;;;3.38;3.00;;;;;;;;;;2071738;28;20415;-75
2023/12/26 06:41:24;;;;;;;3.25;2.75;;;;;;;;;;2079709;28;20030;-77
2023/12/26 06:42:43;;;;;;;5.47;2.85;;;;;;;;;;2080869;28;20029;-75
2023/12/26 06:44:02;;;;;;;5.03;3.20;;;;;;;;;;2079933;28;20021;-75
2023/12/26 06:45:21;;;;;;;3.45;3.15;;;;;;;;;;2079657;28;20394;-75
2023/12/26 06:46:41;;;;;;;3.95;3.08;;;;;;;;;;2078353;28;20418;-76
2023/12/26 06:48:00;;;;;;;3.80;3.30;;;;;;;;;;2080320;28;20041;-75
2023/12/26 06:49:19;;;;;;;4.78;3.25;;;;;;;;;;2075388;28;20034;-75
2023/12/26 06:50:38;;;;;;;3.47;2.97;;;;;;;;;;2072551;28;20033;-75
2023/12/26 06:51:58;;;;;;;4.40;2.90;;;;;;;;;;2075874;28;20387;-75
2023/12/26 06:53:17;;;;;;;2.97;2.70;;;;;;;;;;2079252;28;20051;-75
2023/12/26 06:54:36;;;;;;;2.75;2.55;;;;;;;;;;2079192;28;20120;-75
2023/12/26 06:55:55;;;;;;;2.65;2.45;;;;;;;;;;2080540;28;20029;-76
2023/12/26 06:57:17;;;;;;;4.10;2.95;;;;;;;;;;2076060;28;20025;-75
2023/12/26 06:58:36;;;;;;;3.42;3.03;;;;;;;;;;2077423;28;20022;-77
2023/12/26 06:59:55;;;;;;;3.20;2.90;;;;;;;;;;2073769;28;20236;-76
2023/12/26 07:01:15;;;;;;;3.40;3.13;;;;;;;;;;2071787;28;20045;-75
2023/12/26 07:02:34;;;;;;;4.07;3.17;;;;;;;;;;2077795;28;20692;-75
2023/12/26 07:03:53;;;;;;;3.17;2.80;;;;;;;;;;2069815;28;20018;-75
2023/12/26 07:05:12;;;;;;;4.32;3.20;;;;;;;;;;2073019;28;20030;-75
2023/12/26 07:06:31;;;;;;;3.55;2.60;;;;;;;;;;2077868;28;20047;-75
2023/12/26 07:07:50;;;;;;;3.92;3.33;;;;;;;;;;2080575;28;20034;-75
2023/12/26 07:09:09;;;;;;;3.58;3.28;;;;;;;;;;2072007;28;20021;-75
2023/12/26 07:10:28;;;;;;;3.70;3.10;;;;;;;;;;2073314;28;20116;-75
2023/12/26 07:11:49;;;;;;;4.18;3.55;;;;;;;;;;2075400;28;20033;-75
2023/12/26 07:13:08;;;;;;;3.83;3.38;;;;;;;;;;2078631;28;20038;-77
2023/12/26 07:14:27;;;;;;;5.10;4.25;;;;;;;;;;2073631;28;20423;-76
2023/12/26 07:15:46;;;;;;;4.25;3.42;;;;;;;;;;2070341;28;20050;-75
2023/12/26 07:17:05;;;;;;;8.95;3.45;;;;;;;;;;2071767;28;20040;-76
2023/12/26 07:18:24;;;;;;;5.20;3.13;;;;;;;;;;2077394;28;20478;-76
2023/12/26 07:19:43;;;;;;;3.67;3.13;;;;;;;;;;2074321;28;20434;-75
2023/12/26 07:21:03;;;;;;;3.47;3.15;;;;;;;;;;2076855;28;20406;-75
2023/12/26 07:22:21;;;;;;;3.30;3.00;;;;;;;;;;2079087;28;20038;-75
2023/12/26 07:23:42;;;;;;;3.63;3.25;;;;;;;;;;2078987;28;20037;-75
2023/12/26 07:25:01;;;;;;;4.30;2.95;;;;;;;;;;2079566;28;20018;-75
2023/12/26 07:26:24;;;;;;;4.65;3.33;;;;;;;;;;2080777;28;20034;-75
2023/12/26 07:27:43;;;;;;;4.10;3.05;;;;;;;;;;2074446;28;20021;-75
2023/12/26 07:29:02;;;;;;;3.25;2.95;;;;;;;;;;2072805;28;20462;-75
2023/12/26 07:30:22;;;;;;;2.95;2.67;;;;;;;;;;2069985;28;20034;-75
2023/12/26 07:31:41;;;;;;;3.25;2.85;;;;;;;;;;2070213;28;20510;-75
2023/12/26 07:33:00;;;;;;;3.35;3.05;;;;;;;;;;2078348;28;20037;-77
2023/12/26 07:34:19;;;;;;;4.22;2.97;;;;;;;;;;2075916;28;20108;-75
2023/12/26 07:35:38;;;;;;;4.38;3.35;;;;;;;;;;2070738;28;20025;-75
2023/12/26 07:36:57;;;;;;;3.85;2.75;;;;;;;;;;2076548;28;20060;-77
2023/12/26 07:38:16;;;;;;;3.13;2.83;;;;;;;;;;2078791;28;20038;-75
2023/12/26 07:39:35;;;;;;;3.65;3.28;;;;;;;;;;2079026;28;20463;-76
2023/12/26 07:40:53;;;;;;;3.42;2.72;;;;;;;;;;2079457;28;20025;-75
2023/12/26 07:42:13;;;;;;;5.55;3.20;;;;;;;;;;2079608;28;20034;-75
2023/12/26 07:43:32;;;;;;;5.65;3.42;;;;;;;;;;2078925;28;20021;-75
2023/12/26 07:44:51;;;;;;;3.97;3.08;;;;;;;;;;2074438;28;20022;-75
2023/12/26 07:46:10;;;;;;;4.55;3.30;;;;;;;;;;2070912;28;20026;-75
2023/12/26 07:47:29;;;;;;;6.50;3.38;;;;;;;;;;2077427;28;20022;-76
2023/12/26 07:48:48;;;;;;;5.93;3.67;;;;;;;;;;2075006;28;20046;-75
2023/12/26 07:50:07;;;;;;;5.60;3.67;;;;;;;;;;2077503;28;20045;-75
2023/12/26 07:51:26;;;;;;;3.50;3.20;;;;;;;;;;2079212;28;20108;-75
2023/12/26 07:52:45;;;;;;;4.88;2.90;;;;;;;;;;2066355;28;20039;-76
2023/12/26 07:54:05;;;;;;;5.65;3.30;;;;;;;;;;2073908;28;20025;-75
2023/12/26 07:55:24;;;;;;;5.50;3.10;;;;;;;;;;2079848;28;20025;-77